sensor_id;sensor_type;location;lat;lon;timestamp;pressure;altitude;pressure_sealevel;temperature;humidity
19890;BME280;10107;51.198;6.824;2023-05-19T00:03:30;-21584.38;;;10.10;88.08
19890;BME280;10107;51.198;6.824;2023-05-19T00:07:34;-21582.25;;;10.02;89.33
19890;BME280;10107;51.198;6.824;2023-05-19T00:11:42;-21580.53;;;9.96;90.33
19890;BME280;10107;51.198;6.824;2023-05-19T00:15:44;-21579.59;;;9.92;91.59
19890;BME280;10107;51.198;6.824;2023-05-19T00:19:46;-21579.72;;;9.93;90.60
19890;BME280;10107;51.198;6.824;2023-05-19T00:23:48;-21577.75;;;9.85;92.62
19890;BME280;10107;51.198;6.824;2023-05-19T00:27:51;-21574.69;;;9.73;93.66
19890;BME280;10107;51.198;6.824;2023-05-19T00:31:53;-21571.50;;;9.61;95.41
19890;BME280;10107;51.198;6.824;2023-05-19T00:35:55;-21568.84;;;9.50;95.86
19890;BME280;10107;51.198;6.824;2023-05-19T00:39:57;-21567.13;;;9.44;97.15
19890;BME280;10107;51.198;6.824;2023-05-19T00:44:00;-21565.53;;;9.38;97.98
19890;BME280;10107;51.198;6.824;2023-05-19T00:48:02;-21564.22;;;9.32;98.76
19890;BME280;10107;51.198;6.824;2023-05-19T00:52:05;-21561.97;;;9.24;99.93
19890;BME280;10107;51.198;6.824;2023-05-19T00:56:07;-21559.31;;;9.14;100.00
19890;BME280;10107;51.198;6.824;2023-05-19T01:00:12;-21557.19;;;9.05;100.00
19890;BME280;10107;51.198;6.824;2023-05-19T01:04:14;-21555.31;;;8.98;100.00
19890;BME280;10107;51.198;6.824;2023-05-19T01:08:16;-21553.06;;;8.89;100.00
19890;BME280;10107;51.198;6.824;2023-05-19T01:12:18;-21551.47;;;8.83;100.00
19890;BME280;10107;51.198;6.824;2023-05-19T01:16:24;-21550.00;;;8.78;100.00
19890;BME280;10107;51.198;6.824;2023-05-19T01:20:35;-21548.28;;;8.71;100.00
19890;BME280;10107;51.198;6.824;2023-05-19T01:25:00;-21546.28;;;8.63;100.00
19890;BME280;10107;51.198;6.824;2023-05-19T01:29:28;-21545.09;;;8.59;100.00
19890;BME280;10107;51.198;6.824;2023-05-19T01:33:40;-21544.28;;;8.56;100.00
19890;BME280;10107;51.198;6.824;2023-05-19T01:37:54;-21542.97;;;8.50;100.00
19890;BME280;10107;51.198;6.824;2023-05-19T01:41:56;-21541.63;;;8.45;100.00
19890;BME280;10107;51.198;6.824;2023-05-19T01:45:59;-21540.97;;;8.43;100.00
19890;BME280;10107;51.198;6.824;2023-05-19T01:50:03;-21540.03;;;8.39;100.00
19890;BME280;10107;51.198;6.824;2023-05-19T01:54:05;-21538.97;;;8.35;100.00
19890;BME280;10107;51.198;6.824;2023-05-19T01:58:10;-21539.38;;;8.37;100.00
19890;BME280;10107;51.198;6.824;2023-05-19T02:02:25;-21539.78;;;8.38;100.00
19890;BME280;10107;51.198;6.824;2023-05-19T02:06:37;-21538.84;;;8.35;100.00
19890;BME280;10107;51.198;6.824;2023-05-19T02:10:40;-21538.44;;;8.33;100.00
19890;BME280;10107;51.198;6.824;2023-05-19T02:14:50;-21537.25;;;8.28;100.00
19890;BME280;10107;51.198;6.824;2023-05-19T02:18:53;-21536.31;;;8.25;100.00
19890;BME280;10107;51.198;6.824;2023-05-19T02:22:57;-21534.31;;;8.17;100.00
19890;BME280;10107;51.198;6.824;2023-05-19T02:26:58;-21533.91;;;8.16;100.00
19890;BME280;10107;51.198;6.824;2023-05-19T02:31:00;-21532.84;;;8.11;100.00
19890;BME280;10107;51.198;6.824;2023-05-19T02:35:03;-21533.00;;;8.12;100.00
19890;BME280;10107;51.198;6.824;2023-05-19T02:39:06;-21532.84;;;8.11;100.00
19890;BME280;10107;51.198;6.824;2023-05-19T02:43:08;-21533.66;;;8.15;100.00
19890;BME280;10107;51.198;6.824;2023-05-19T02:47:10;-21533.66;;;8.15;100.00
19890;BME280;10107;51.198;6.824;2023-05-19T02:51:12;-21534.06;;;8.16;100.00
19890;BME280;10107;51.198;6.824;2023-05-19T02:55:15;-21534.19;;;8.17;100.00
19890;BME280;10107;51.198;6.824;2023-05-19T02:59:16;-21533.66;;;8.15;100.00
19890;BME280;10107;51.198;6.824;2023-05-19T03:03:18;-21534.59;;;8.18;100.00
19890;BME280;10107;51.198;6.824;2023-05-19T03:07:20;-21535.00;;;8.20;100.00
19890;BME280;10107;51.198;6.824;2023-05-19T03:11:25;-21534.19;;;8.17;100.00
19890;BME280;10107;51.198;6.824;2023-05-19T03:15:28;-21531.94;;;8.08;100.00
19890;BME280;10107;51.198;6.824;2023-05-19T03:19:29;-21529.94;;;8.00;100.00
19890;BME280;10107;51.198;6.824;2023-05-19T03:23:31;-21527.28;;;7.90;100.00
19890;BME280;10107;51.198;6.824;2023-05-19T03:27:34;-21527.28;;;7.90;100.00
19890;BME280;10107;51.198;6.824;2023-05-19T03:31:36;-21526.75;;;7.88;100.00
19890;BME280;10107;51.198;6.824;2023-05-19T03:35:39;-21526.06;;;7.85;100.00
19890;BME280;10107;51.198;6.824;2023-05-19T03:39:41;-21524.22;;;7.78;100.00
19890;BME280;10107;51.198;6.824;2023-05-19T03:43:44;-21522.09;;;7.70;100.00
19890;BME280;10107;51.198;6.824;2023-05-19T03:47:45;-21521.44;;;7.67;100.00
19890;BME280;10107;51.198;6.824;2023-05-19T03:52:02;-21521.16;;;7.66;100.00
19890;BME280;10107;51.198;6.824;2023-05-19T03:56:10;-21521.69;;;7.68;100.00
19890;BME280;10107;51.198;6.824;2023-05-19T04:00:15;-21522.75;;;7.72;100.00
19890;BME280;10107;51.198;6.824;2023-05-19T04:04:17;-21523.94;;;7.77;100.00
19890;BME280;10107;51.198;6.824;2023-05-19T04:08:19;-21525.16;;;7.82;100.00
19890;BME280;10107;51.198;6.824;2023-05-19T04:12:20;-21525.81;;;7.84;100.00
19890;BME280;10107;51.198;6.824;2023-05-19T04:16:23;-21528.06;;;7.93;100.00
19890;BME280;10107;51.198;6.824;2023-05-19T04:20:25;-21531.25;;;8.05;100.00
19890;BME280;10107;51.198;6.824;2023-05-19T04:24:27;-21535.25;;;8.21;100.00
19890;BME280;10107;51.198;6.824;2023-05-19T04:28:29;-21539.91;;;8.39;100.00
19890;BME280;10107;51.198;6.824;2023-05-19T04:32:33;-21545.75;;;8.61;100.00
19890;BME280;10107;51.198;6.824;2023-05-19T04:36:37;-21551.47;;;8.83;100.00
19890;BME280;10107;51.198;6.824;2023-05-19T04:40:38;-21556.78;;;9.04;100.00
19890;BME280;10107;51.198;6.824;2023-05-19T04:44:42;-21561.56;;;9.22;99.81
19890;BME280;10107;51.198;6.824;2023-05-19T04:48:45;-21568.06;;;9.47;98.08
19890;BME280;10107;51.198;6.824;2023-05-19T04:52:46;-21575.09;;;9.75;94.37
19890;BME280;10107;51.198;6.824;2023-05-19T04:56:49;-21582.78;;;10.04;93.02
19890;BME280;10107;51.198;6.824;2023-05-19T05:00:51;-21592.72;;;10.43;90.09
19890;BME280;10107;51.198;6.824;2023-05-19T05:04:57;-21611.94;;;11.17;84.28
19890;BME280;10107;51.198;6.824;2023-05-19T05:08:59;-21674.66;;;13.61;71.51
19890;BME280;10107;51.198;6.824;2023-05-19T05:13:03;-21729.66;;;15.75;59.31
19890;BME280;10107;51.198;6.824;2023-05-19T05:17:06;-21766.16;;;17.18;53.47
19890;BME280;10107;51.198;6.824;2023-05-19T05:21:10;-21803.03;;;18.63;49.65
19890;BME280;10107;51.198;6.824;2023-05-19T05:25:15;-21835.69;;;19.91;44.11
19890;BME280;10107;51.198;6.824;2023-05-19T05:29:18;-21860.06;;;20.87;41.43
19890;BME280;10107;51.198;6.824;2023-05-19T05:33:20;-21880.88;;;21.69;40.63
19890;BME280;10107;51.198;6.824;2023-05-19T05:37:25;-21899.69;;;22.43;37.06
19890;BME280;10107;51.198;6.824;2023-05-19T05:41:27;-21919.69;;;23.22;35.94
19890;BME280;10107;51.198;6.824;2023-05-19T05:45:29;-21935.88;;;23.86;35.10
19890;BME280;10107;51.198;6.824;2023-05-19T05:49:32;-21964.56;;;25.00;32.18
19890;BME280;10107;51.198;6.824;2023-05-19T05:53:40;-21971.53;;;25.28;31.22
19890;BME280;10107;51.198;6.824;2023-05-19T05:57:43;-21964.19;;;24.99;30.91
19890;BME280;10107;51.198;6.824;2023-05-19T06:01:45;-21974.25;;;25.39;30.65
19890;BME280;10107;51.198;6.824;2023-05-19T06:05:51;-21978.00;;;25.54;30.22
19890;BME280;10107;51.198;6.824;2023-05-19T06:09:56;-21986.78;;;25.88;29.53
19890;BME280;10107;51.198;6.824;2023-05-19T06:13:58;-21992.06;;;26.10;28.64
19890;BME280;10107;51.198;6.824;2023-05-19T06:18:23;-22009.44;;;26.79;28.07
19890;BME280;10107;51.198;6.824;2023-05-19T06:22:26;-22043.63;;;28.15;26.42
19890;BME280;10107;51.198;6.824;2023-05-19T06:26:30;-22069.03;;;29.17;26.04
19890;BME280;10107;51.198;6.824;2023-05-19T06:30:31;-22101.41;;;30.47;23.82
19890;BME280;10107;51.198;6.824;2023-05-19T06:34:43;-22107.91;;;30.73;23.16
19890;BME280;10107;51.198;6.824;2023-05-19T06:38:45;-22099.09;;;30.37;22.95
19890;BME280;10107;51.198;6.824;2023-05-19T06:42:48;-22095.41;;;30.23;22.79
19890;BME280;10107;51.198;6.824;2023-05-19T06:46:55;-22118.91;;;31.17;22.32
19890;BME280;10107;51.198;6.824;2023-05-19T06:50:57;-22124.25;;;31.38;21.75
19890;BME280;10107;51.198;6.824;2023-05-19T06:54:59;-22132.41;;;31.71;21.69
19890;BME280;10107;51.198;6.824;2023-05-19T06:59:03;-22160.41;;;32.84;20.84
19890;BME280;10107;51.198;6.824;2023-05-19T07:03:09;-22155.97;;;32.66;20.86
19890;BME280;10107;51.198;6.824;2023-05-19T07:07:11;-22165.63;;;33.05;19.57
19890;BME280;10107;51.198;6.824;2023-05-19T07:11:13;-22184.16;;;33.80;19.84
19890;BME280;10107;51.198;6.824;2023-05-19T07:15:18;-22201.91;;;34.52;19.10
19890;BME280;10107;51.198;6.824;2023-05-19T07:19:20;-22239.72;;;36.05;18.34
19890;BME280;10107;51.198;6.824;2023-05-19T07:23:23;-22233.66;;;35.81;17.44
19890;BME280;10107;51.198;6.824;2023-05-19T07:27:24;-22224.94;;;35.45;17.58
19890;BME280;10107;51.198;6.824;2023-05-19T07:31:27;-22171.84;;;33.30;18.76
19890;BME280;10107;51.198;6.824;2023-05-19T07:35:29;-22170.44;;;33.25;19.55
19890;BME280;10107;51.198;6.824;2023-05-19T07:39:32;-22187.47;;;33.93;18.84
19890;BME280;10107;51.198;6.824;2023-05-19T07:43:34;-22203.81;;;34.60;18.25
19890;BME280;10107;51.198;6.824;2023-05-19T07:47:37;-22202.53;;;34.55;18.28
19890;BME280;10107;51.198;6.824;2023-05-19T07:51:38;-22237.19;;;35.95;17.49
19890;BME280;10107;51.198;6.824;2023-05-19T07:55:41;-22221.16;;;35.30;16.89
19890;BME280;10107;51.198;6.824;2023-05-19T07:59:43;-22182.25;;;33.72;18.42
19890;BME280;10107;51.198;6.824;2023-05-19T08:03:46;-22148.34;;;32.35;19.87
19890;BME280;10107;51.198;6.824;2023-05-19T08:07:48;-22115.97;;;31.05;20.66
19890;BME280;10107;51.198;6.824;2023-05-19T08:11:50;-22111.88;;;30.89;21.00
19890;BME280;10107;51.198;6.824;2023-05-19T08:15:51;-22113.53;;;30.95;21.12
19890;BME280;10107;51.198;6.824;2023-05-19T08:20:00;-22093.09;;;30.13;21.84
19890;BME280;10107;51.198;6.824;2023-05-19T08:24:03;-22084.53;;;29.79;21.69
19890;BME280;10107;51.198;6.824;2023-05-19T08:28:05;-22086.19;;;29.86;21.59
19890;BME280;10107;51.198;6.824;2023-05-19T08:32:07;-22077.88;;;29.52;22.11
19890;BME280;10107;51.198;6.824;2023-05-19T08:36:10;-22061.09;;;28.85;22.39
19890;BME280;10107;51.198;6.824;2023-05-19T08:40:16;-22074.66;;;29.39;22.33
19890;BME280;10107;51.198;6.824;2023-05-19T08:44:18;-22080.19;;;29.61;21.30
19890;BME280;10107;51.198;6.824;2023-05-19T08:48:21;-22091.69;;;30.08;21.60
19890;BME280;10107;51.198;6.824;2023-05-19T08:52:31;-22074.41;;;29.38;21.93
19890;BME280;10107;51.198;6.824;2023-05-19T08:56:35;-22095.91;;;30.25;21.32
19890;BME280;10107;51.198;6.824;2023-05-19T09:00:38;-22105.88;;;30.65;21.23
19890;BME280;10107;51.198;6.824;2023-05-19T09:04:40;-22097.56;;;30.31;20.45
19890;BME280;10107;51.198;6.824;2023-05-19T09:08:46;-22073.66;;;29.35;22.49
19890;BME280;10107;51.198;6.824;2023-05-19T09:12:48;-22114.69;;;31.00;21.96
19890;BME280;10107;51.198;6.824;2023-05-19T09:16:50;-22109.69;;;30.80;19.90
19890;BME280;10107;51.198;6.824;2023-05-19T09:20:56;-22116.59;;;31.08;20.52
19890;BME280;10107;51.198;6.824;2023-05-19T09:25:01;-22131.00;;;31.66;19.91
19890;BME280;10107;51.198;6.824;2023-05-19T09:29:09;-22128.22;;;31.54;19.45
19890;BME280;10107;51.198;6.824;2023-05-19T09:33:16;-22113.53;;;30.95;19.80
19890;BME280;10107;51.198;6.824;2023-05-19T09:37:21;-22114.03;;;30.97;19.56
19890;BME280;10107;51.198;6.824;2023-05-19T09:41:25;-22112.78;;;30.92;19.72
19890;BME280;10107;51.198;6.824;2023-05-19T09:45:27;-22114.69;;;31.00;20.15
19890;BME280;10107;51.198;6.824;2023-05-19T09:49:29;-22099.50;;;30.39;20.13
19890;BME280;10107;51.198;6.824;2023-05-19T09:53:33;-22107.16;;;30.70;20.32
19890;BME280;10107;51.198;6.824;2023-05-19T09:57:36;-22123.59;;;31.36;20.54
19890;BME280;10107;51.198;6.824;2023-05-19T10:01:38;-22131.13;;;31.66;19.97
19890;BME280;10107;51.198;6.824;2023-05-19T10:05:41;-22099.34;;;30.38;20.11
19890;BME280;10107;51.198;6.824;2023-05-19T10:09:43;-22117.22;;;31.10;19.87
19890;BME280;10107;51.198;6.824;2023-05-19T10:13:49;-22127.69;;;31.52;20.05
19890;BME280;10107;51.198;6.824;2023-05-19T10:17:52;-22148.97;;;32.38;19.88
19890;BME280;10107;51.198;6.824;2023-05-19T10:21:54;-22136.34;;;31.87;19.53
19890;BME280;10107;51.198;6.824;2023-05-19T10:25:58;-22131.25;;;31.67;19.79
19890;BME280;10107;51.198;6.824;2023-05-19T10:30:07;-22112.25;;;30.90;20.55
19890;BME280;10107;51.198;6.824;2023-05-19T10:34:22;-22092.72;;;30.12;21.05
19890;BME280;10107;51.198;6.824;2023-05-19T10:38:33;-22084.91;;;29.80;20.97
19890;BME280;10107;51.198;6.824;2023-05-19T10:42:44;-22081.31;;;29.66;21.60
19890;BME280;10107;51.198;6.824;2023-05-19T10:46:55;-22071.59;;;29.27;21.74
19890;BME280;10107;51.198;6.824;2023-05-19T10:50:58;-22088.22;;;29.94;20.63
19890;BME280;10107;51.198;6.824;2023-05-19T10:55:00;-22097.81;;;30.32;21.25
19890;BME280;10107;51.198;6.824;2023-05-19T10:59:02;-22119.78;;;31.21;20.05
19890;BME280;10107;51.198;6.824;2023-05-19T11:03:15;-22110.22;;;30.82;20.35
19890;BME280;10107;51.198;6.824;2023-05-19T11:07:19;-22113.28;;;30.94;21.17
19890;BME280;10107;51.198;6.824;2023-05-19T11:11:23;-22118.63;;;31.16;20.29
19890;BME280;10107;51.198;6.824;2023-05-19T11:15:27;-22113.16;;;30.94;21.21
19890;BME280;10107;51.198;6.824;2023-05-19T11:19:32;-22097.44;;;30.31;21.38
19890;BME280;10107;51.198;6.824;2023-05-19T11:23:37;-22107.41;;;30.71;21.24
19890;BME280;10107;51.198;6.824;2023-05-19T11:27:40;-22106.38;;;30.67;20.73
19890;BME280;10107;51.198;6.824;2023-05-19T11:31:42;-22080.81;;;29.64;22.12
19890;BME280;10107;51.198;6.824;2023-05-19T11:35:47;-22098.22;;;30.34;21.27
19890;BME280;10107;51.198;6.824;2023-05-19T11:39:51;-22090.66;;;30.04;21.17
19890;BME280;10107;51.198;6.824;2023-05-19T11:43:53;-22082.09;;;29.69;22.51
19890;BME280;10107;51.198;6.824;2023-05-19T11:47:54;-22071.09;;;29.25;22.54
19890;BME280;10107;51.198;6.824;2023-05-19T11:52:00;-22050.81;;;28.44;22.35
19890;BME280;10107;51.198;6.824;2023-05-19T11:56:03;-22021.81;;;27.28;23.81
19890;BME280;10107;51.198;6.824;2023-05-19T12:00:06;-22025.16;;;27.41;23.69
19890;BME280;10107;51.198;6.824;2023-05-19T12:04:08;-22044.41;;;28.18;23.95
19890;BME280;10107;51.198;6.824;2023-05-19T12:08:11;-22045.81;;;28.24;23.54
19890;BME280;10107;51.198;6.824;2023-05-19T12:12:14;-22046.59;;;28.27;23.43
19890;BME280;10107;51.198;6.824;2023-05-19T12:16:18;-22045.69;;;28.23;25.06
19890;BME280;10107;51.198;6.824;2023-05-19T12:20:20;-22027.06;;;27.49;24.24
19890;BME280;10107;51.198;6.824;2023-05-19T12:24:24;-22022.81;;;27.32;25.00
19890;BME280;10107;51.198;6.824;2023-05-19T12:28:28;-22020.78;;;27.24;24.42
19890;BME280;10107;51.198;6.824;2023-05-19T12:32:32;-22010.75;;;26.84;25.47
19890;BME280;10107;51.198;6.824;2023-05-19T12:36:34;-22010.09;;;26.81;25.47
19890;BME280;10107;51.198;6.824;2023-05-19T12:40:37;-22005.06;;;26.61;25.74
19890;BME280;10107;51.198;6.824;2023-05-19T12:44:43;-22006.34;;;26.66;26.13
19890;BME280;10107;51.198;6.824;2023-05-19T12:48:46;-22007.50;;;26.71;26.36
19890;BME280;10107;51.198;6.824;2023-05-19T12:52:49;-21992.44;;;26.11;25.83
19890;BME280;10107;51.198;6.824;2023-05-19T12:56:53;-21970.13;;;25.22;27.29
19890;BME280;10107;51.198;6.824;2023-05-19T13:00:57;-21955.53;;;24.64;28.06
19890;BME280;10107;51.198;6.824;2023-05-19T13:05:00;-21963.03;;;24.94;28.11
19890;BME280;10107;51.198;6.824;2023-05-19T13:09:02;-21983.81;;;25.77;27.62
19890;BME280;10107;51.198;6.824;2023-05-19T13:13:06;-21982.91;;;25.73;27.07
19890;BME280;10107;51.198;6.824;2023-05-19T13:17:08;-21955.41;;;24.64;27.98
19890;BME280;10107;51.198;6.824;2023-05-19T13:21:10;-21953.59;;;24.57;28.48
19890;BME280;10107;51.198;6.824;2023-05-19T13:25:11;-21964.44;;;25.00;28.63
19890;BME280;10107;51.198;6.824;2023-05-19T13:29:15;-21962.13;;;24.90;27.87
19890;BME280;10107;51.198;6.824;2023-05-19T13:33:16;-21961.59;;;24.88;28.75
19890;BME280;10107;51.198;6.824;2023-05-19T13:37:18;-21958.50;;;24.76;28.43
19890;BME280;10107;51.198;6.824;2023-05-19T13:41:23;-21962.00;;;24.90;28.54
19890;BME280;10107;51.198;6.824;2023-05-19T13:45:27;-21950.59;;;24.45;28.88
19890;BME280;10107;51.198;6.824;2023-05-19T13:49:29;-21950.75;;;24.45;29.58
19890;BME280;10107;51.198;6.824;2023-05-19T13:53:31;-21949.06;;;24.39;29.16
19890;BME280;10107;51.198;6.824;2023-05-19T13:57:34;-21937.28;;;23.92;29.79
19890;BME280;10107;51.198;6.824;2023-05-19T14:01:37;-21932.38;;;23.72;31.02
19890;BME280;10107;51.198;6.824;2023-05-19T14:05:39;-21930.28;;;23.64;30.50
19890;BME280;10107;51.198;6.824;2023-05-19T14:09:41;-21906.72;;;22.71;31.51
19890;BME280;10107;51.198;6.824;2023-05-19T14:13:43;-21908.13;;;22.77;32.39
19890;BME280;10107;51.198;6.824;2023-05-19T14:17:46;-21915.25;;;23.05;31.17
19890;BME280;10107;51.198;6.824;2023-05-19T14:21:48;-21915.91;;;23.07;30.70
19890;BME280;10107;51.198;6.824;2023-05-19T14:25:50;-21920.19;;;23.24;31.21
19890;BME280;10107;51.198;6.824;2023-05-19T14:29:52;-21919.69;;;23.22;31.34
19890;BME280;10107;51.198;6.824;2023-05-19T14:33:55;-21916.56;;;23.10;30.97
19890;BME280;10107;51.198;6.824;2023-05-19T14:37:57;-21923.44;;;23.37;31.07
19890;BME280;10107;51.198;6.824;2023-05-19T14:41:58;-21919.81;;;23.23;30.38
19890;BME280;10107;51.198;6.824;2023-05-19T14:46:00;-21914.88;;;23.03;30.66
19890;BME280;10107;51.198;6.824;2023-05-19T14:50:05;-21915.91;;;23.07;30.57
19890;BME280;10107;51.198;6.824;2023-05-19T14:54:07;-21913.97;;;23.00;30.39
19890;BME280;10107;51.198;6.824;2023-05-19T14:58:08;-21908.00;;;22.76;30.47
19890;BME280;10107;51.198;6.824;2023-05-19T15:02:10;-21908.78;;;22.79;30.64
19890;BME280;10107;51.198;6.824;2023-05-19T15:06:13;-21898.41;;;22.38;30.49
19890;BME280;10107;51.198;6.824;2023-05-19T15:10:15;-21892.94;;;22.17;31.24
19890;BME280;10107;51.198;6.824;2023-05-19T15:14:16;-21894.91;;;22.24;32.06
19890;BME280;10107;51.198;6.824;2023-05-19T15:18:18;-21899.19;;;22.41;31.47
19890;BME280;10107;51.198;6.824;2023-05-19T15:22:21;-21903.19;;;22.57;31.00
19890;BME280;10107;51.198;6.824;2023-05-19T15:26:23;-21900.09;;;22.45;30.66
19890;BME280;10107;51.198;6.824;2023-05-19T15:30:25;-21898.00;;;22.37;30.75
19890;BME280;10107;51.198;6.824;2023-05-19T15:34:27;-21892.28;;;22.14;30.43
19890;BME280;10107;51.198;6.824;2023-05-19T15:38:34;-21896.06;;;22.29;30.84
19890;BME280;10107;51.198;6.824;2023-05-19T15:42:35;-21893.59;;;22.19;30.73
19890;BME280;10107;51.198;6.824;2023-05-19T15:46:37;-21886.84;;;21.92;30.76
19890;BME280;10107;51.198;6.824;2023-05-19T15:50:39;-21881.91;;;21.73;31.40
19890;BME280;10107;51.198;6.824;2023-05-19T15:54:42;-21876.84;;;21.53;31.33
19890;BME280;10107;51.198;6.824;2023-05-19T15:58:44;-21872.16;;;21.34;31.20
19890;BME280;10107;51.198;6.824;2023-05-19T16:02:45;-21871.50;;;21.32;31.60
19890;BME280;10107;51.198;6.824;2023-05-19T16:06:47;-21871.09;;;21.30;31.39
19890;BME280;10107;51.198;6.824;2023-05-19T16:10:51;-21868.78;;;21.21;31.01
19890;BME280;10107;51.198;6.824;2023-05-19T16:14:53;-21865.38;;;21.08;32.06
19890;BME280;10107;51.198;6.824;2023-05-19T16:18:54;-21867.47;;;21.16;31.79
19890;BME280;10107;51.198;6.824;2023-05-19T16:22:56;-21866.03;;;21.10;32.30
19890;BME280;10107;51.198;6.824;2023-05-19T16:26:59;-21867.72;;;21.17;31.89
19890;BME280;10107;51.198;6.824;2023-05-19T16:31:01;-21866.56;;;21.12;32.16
19890;BME280;10107;51.198;6.824;2023-05-19T16:35:03;-21866.56;;;21.12;32.97
19890;BME280;10107;51.198;6.824;2023-05-19T16:39:05;-21864.47;;;21.04;32.17
19890;BME280;10107;51.198;6.824;2023-05-19T16:43:08;-21859.53;;;20.85;31.77
19890;BME280;10107;51.198;6.824;2023-05-19T16:47:10;-21856.94;;;20.74;32.11
19890;BME280;10107;51.198;6.824;2023-05-19T16:51:12;-21858.09;;;20.79;32.25
19890;BME280;10107;51.198;6.824;2023-05-19T16:55:13;-21856.00;;;20.71;32.77
19890;BME280;10107;51.198;6.824;2023-05-19T16:59:20;-21854.06;;;20.63;33.05
19890;BME280;10107;51.198;6.824;2023-05-19T17:03:22;-21850.41;;;20.49;33.14
19890;BME280;10107;51.198;6.824;2023-05-19T17:07:23;-21846.75;;;20.34;33.23
19890;BME280;10107;51.198;6.824;2023-05-19T17:11:27;-21846.13;;;20.32;33.04
19890;BME280;10107;51.198;6.824;2023-05-19T17:15:33;-21842.84;;;20.19;33.16
19890;BME280;10107;51.198;6.824;2023-05-19T17:19:35;-21841.28;;;20.13;33.35
19890;BME280;10107;51.198;6.824;2023-05-19T17:23:36;-21840.38;;;20.09;33.67
19890;BME280;10107;51.198;6.824;2023-05-19T17:27:38;-21839.47;;;20.06;33.70
19890;BME280;10107;51.198;6.824;2023-05-19T17:31:41;-21837.13;;;19.96;34.33
19890;BME280;10107;51.198;6.824;2023-05-19T17:35:43;-21836.72;;;19.95;34.58
19890;BME280;10107;51.198;6.824;2023-05-19T17:39:44;-21834.00;;;19.84;34.15
19890;BME280;10107;51.198;6.824;2023-05-19T17:43:46;-21830.72;;;19.71;34.47
19890;BME280;10107;51.198;6.824;2023-05-19T17:47:49;-21829.28;;;19.66;34.88
19890;BME280;10107;51.198;6.824;2023-05-19T17:51:51;-21829.03;;;19.65;35.31
19890;BME280;10107;51.198;6.824;2023-05-19T17:55:57;-21825.91;;;19.52;34.85
19890;BME280;10107;51.198;6.824;2023-05-19T17:59:59;-21825.50;;;19.51;34.83
19890;BME280;10107;51.198;6.824;2023-05-19T18:04:07;-21838.44;;;20.02;34.96
19890;BME280;10107;51.198;6.824;2023-05-19T18:08:09;-21845.72;;;20.30;33.53
19890;BME280;10107;51.198;6.824;2023-05-19T18:12:12;-21833.34;;;19.82;35.29
19890;BME280;10107;51.198;6.824;2023-05-19T18:16:14;-21823.28;;;19.42;35.58
19890;BME280;10107;51.198;6.824;2023-05-19T18:20:17;-21816.38;;;19.15;36.53
19890;BME280;10107;51.198;6.824;2023-05-19T18:24:19;-21811.94;;;18.97;37.28
19890;BME280;10107;51.198;6.824;2023-05-19T18:28:21;-21807.88;;;18.82;37.75
19890;BME280;10107;51.198;6.824;2023-05-19T18:32:23;-21804.63;;;18.69;38.35
19890;BME280;10107;51.198;6.824;2023-05-19T18:36:26;-21801.75;;;18.57;38.58
19890;BME280;10107;51.198;6.824;2023-05-19T18:40:28;-21798.47;;;18.45;38.56
19890;BME280;10107;51.198;6.824;2023-05-19T18:44:30;-21795.34;;;18.32;39.00
19890;BME280;10107;51.198;6.824;2023-05-19T18:48:33;-21792.19;;;18.20;39.80
19890;BME280;10107;51.198;6.824;2023-05-19T18:52:36;-21789.56;;;18.10;39.68
19890;BME280;10107;51.198;6.824;2023-05-19T18:56:38;-21786.03;;;17.96;40.71
19890;BME280;10107;51.198;6.824;2023-05-19T19:00:40;-21783.03;;;17.84;40.34
19890;BME280;10107;51.198;6.824;2023-05-19T19:04:42;-21780.28;;;17.73;41.11
19890;BME280;10107;51.198;6.824;2023-05-19T19:08:45;-21777.16;;;17.61;41.95
19890;BME280;10107;51.198;6.824;2023-05-19T19:12:49;-21773.63;;;17.47;42.18
19890;BME280;10107;51.198;6.824;2023-05-19T19:16:51;-21770.72;;;17.36;42.69
19890;BME280;10107;51.198;6.824;2023-05-19T19:20:53;-21767.31;;;17.22;43.33
19890;BME280;10107;51.198;6.824;2023-05-19T19:24:58;-21765.75;;;17.16;43.15
19890;BME280;10107;51.198;6.824;2023-05-19T19:29:00;-21763.66;;;17.08;43.92
19890;BME280;10107;51.198;6.824;2023-05-19T19:33:03;-21760.63;;;16.96;44.28
19890;BME280;10107;51.198;6.824;2023-05-19T19:37:05;-21758.28;;;16.87;45.28
19890;BME280;10107;51.198;6.824;2023-05-19T19:41:08;-21755.53;;;16.76;45.31
19890;BME280;10107;51.198;6.824;2023-05-19T19:45:10;-21753.03;;;16.67;46.27
19890;BME280;10107;51.198;6.824;2023-05-19T19:49:12;-21750.53;;;16.57;46.26
19890;BME280;10107;51.198;6.824;2023-05-19T19:53:14;-21748.56;;;16.49;47.11
19890;BME280;10107;51.198;6.824;2023-05-19T19:57:17;-21747.00;;;16.43;47.50
19890;BME280;10107;51.198;6.824;2023-05-19T20:01:19;-21744.38;;;16.33;47.34
19890;BME280;10107;51.198;6.824;2023-05-19T20:05:22;-21742.66;;;16.26;47.59
19890;BME280;10107;51.198;6.824;2023-05-19T20:09:24;-21740.69;;;16.18;49.26
19890;BME280;10107;51.198;6.824;2023-05-19T20:13:27;-21739.00;;;16.12;49.16
19890;BME280;10107;51.198;6.824;2023-05-19T20:17:29;-21737.03;;;16.04;49.83
19890;BME280;10107;51.198;6.824;2023-05-19T20:21:31;-21735.31;;;15.97;50.18
19890;BME280;10107;51.198;6.824;2023-05-19T20:25:33;-21733.34;;;15.90;50.15
19890;BME280;10107;51.198;6.824;2023-05-19T20:29:36;-21732.03;;;15.84;50.52
19890;BME280;10107;51.198;6.824;2023-05-19T20:33:38;-21731.50;;;15.82;50.79
19890;BME280;10107;51.198;6.824;2023-05-19T20:37:39;-21729.66;;;15.75;51.15
19890;BME280;10107;51.198;6.824;2023-05-19T20:41:41;-21729.16;;;15.73;51.56
19890;BME280;10107;51.198;6.824;2023-05-19T20:45:49;-21727.44;;;15.67;51.78
19890;BME280;10107;51.198;6.824;2023-05-19T20:49:51;-21726.13;;;15.61;52.32
19890;BME280;10107;51.198;6.824;2023-05-19T20:53:53;-21725.59;;;15.59;52.37
19890;BME280;10107;51.198;6.824;2023-05-19T20:57:56;-21724.69;;;15.56;53.20
19890;BME280;10107;51.198;6.824;2023-05-19T21:01:59;-21723.09;;;15.50;53.26
19890;BME280;10107;51.198;6.824;2023-05-19T21:06:01;-21720.59;;;15.40;53.96
19890;BME280;10107;51.198;6.824;2023-05-19T21:10:04;-21718.75;;;15.33;54.49
19890;BME280;10107;51.198;6.824;2023-05-19T21:14:06;-21717.19;;;15.27;55.10